createdAt,value
2023-10-26T00:02:33.684Z,5.97
2023-10-26T00:05:36.538Z,6.10
2023-10-26T00:08:38.953Z,5.50
2023-10-26T00:11:41.572Z,5.70
2023-10-26T00:14:44.123Z,6.15
2023-10-26T00:17:47.062Z,8.10
2023-10-26T00:20:50.427Z,7.67
2023-10-26T00:23:53.108Z,4.57
2023-10-26T00:26:55.616Z,6.00
2023-10-26T00:29:58.351Z,8.15
2023-10-26T00:33:00.887Z,7.70
2023-10-26T00:36:03.779Z,4.90
2023-10-26T00:39:07.509Z,5.87
2023-10-26T00:42:10.256Z,6.25
2023-10-26T00:45:12.736Z,6.95
2023-10-26T00:48:15.520Z,9.27
2023-10-26T00:51:18.221Z,10.87
2023-10-26T00:54:21.431Z,8.20
2023-10-26T00:57:25.437Z,7.15
2023-10-26T01:00:28.501Z,6.95
2023-10-26T01:03:31.604Z,8.00
2023-10-26T01:06:34.593Z,8.03
2023-10-26T01:09:37.166Z,6.75
2023-10-26T01:12:40.279Z,8.75
2023-10-26T01:15:42.816Z,8.70
2023-10-26T01:18:45.455Z,9.10
2023-10-26T01:21:51.984Z,10.03
2023-10-26T01:24:55.980Z,10.18
2023-10-26T01:27:59.163Z,9.70
2023-10-26T01:31:01.880Z,9.32
2023-10-26T01:34:04.730Z,8.43
2023-10-26T01:37:07.725Z,11.90
2023-10-26T01:40:10.630Z,9.73
2023-10-26T01:43:13.252Z,9.88
2023-10-26T01:46:15.612Z,8.85
2023-10-26T01:49:18.391Z,8.60
2023-10-26T01:52:20.841Z,11.57
2023-10-26T01:55:23.735Z,9.95
2023-10-26T01:58:26.147Z,11.48
2023-10-26T02:01:28.790Z,10.00
2023-10-26T02:04:31.480Z,8.90
2023-10-26T02:07:34.582Z,12.07
2023-10-26T02:10:37.549Z,11.88
2023-10-26T02:13:41.171Z,9.50
2023-10-26T02:16:43.867Z,12.23
2023-10-26T02:19:46.201Z,10.30
2023-10-26T02:22:49.151Z,9.10
2023-10-26T02:25:51.516Z,9.70
2023-10-26T02:28:54.504Z,9.88
2023-10-26T02:32:00.164Z,8.07
2023-10-26T02:41:49.182Z,10.80
2023-10-26T02:44:51.930Z,7.28
2023-10-26T02:47:54.392Z,11.93
2023-10-26T02:50:57.859Z,14.30
2023-10-26T02:54:00.308Z,14.50
2023-10-26T02:57:03.036Z,12.57
2023-10-26T03:00:07.160Z,14.95
2023-10-26T03:03:10.633Z,17.10
2023-10-26T03:06:13.262Z,14.60
2023-10-26T03:09:15.982Z,15.07
2023-10-26T03:12:20.145Z,21.77
2023-10-26T03:29:36.792Z,14.90
2023-10-26T03:32:39.235Z,6.85
2023-10-26T03:35:45.057Z,17.17
2023-10-26T03:38:47.279Z,13.83
2023-10-26T03:46:15.037Z,15.20
2023-10-26T03:49:17.665Z,12.90
2023-10-26T03:52:23.215Z,15.50
2023-10-26T03:55:26.271Z,15.07
2023-10-26T03:58:28.713Z,14.33
2023-10-26T04:01:31.404Z,14.55
2023-10-26T04:04:34.484Z,15.25
2023-10-26T04:07:36.948Z,14.15
2023-10-26T04:10:39.628Z,11.07
2023-10-26T04:13:42.091Z,9.27
2023-10-26T04:16:48.773Z,12.35
2023-10-26T04:19:51.150Z,16.37
2023-10-26T04:22:53.791Z,15.55
2023-10-26T04:25:56.148Z,16.40
2023-10-26T04:28:58.806Z,14.63
2023-10-26T04:32:01.173Z,15.35
2023-10-26T04:35:04.564Z,17.90
2023-10-26T04:38:06.972Z,20.80
2023-10-26T04:41:09.646Z,17.57
2023-10-26T04:44:13.047Z,15.40
2023-10-26T04:47:15.812Z,16.58
2023-10-26T04:50:18.186Z,14.52
2023-10-26T04:53:21.444Z,17.12
2023-10-26T04:56:23.801Z,18.83
2023-10-26T04:59:26.636Z,15.87
2023-10-26T05:02:29.033Z,17.17
2023-10-26T05:05:31.738Z,15.55
2023-10-26T05:08:34.192Z,16.05
2023-10-26T05:11:36.852Z,17.37
2023-10-26T05:14:40.274Z,17.73
2023-10-26T05:17:43.000Z,16.73
2023-10-26T05:20:52.332Z,16.52
2023-10-26T05:23:58.197Z,18.62
2023-10-26T05:27:00.650Z,17.77
2023-10-26T05:30:03.887Z,18.80
2023-10-26T05:33:06.396Z,19.10
2023-10-26T05:36:09.381Z,19.15
2023-10-26T05:39:11.890Z,21.23
2023-10-26T05:42:14.645Z,22.67
2023-10-26T05:45:17.126Z,21.10
2023-10-26T05:48:20.903Z,20.55
2023-10-26T05:51:23.430Z,20.05
2023-10-26T05:54:26.220Z,22.70
2023-10-26T05:57:28.786Z,22.40
2023-10-26T06:00:33.164Z,22.50
2023-10-26T06:03:36.191Z,24.17
2023-10-26T06:06:38.877Z,22.37
2023-10-26T06:09:41.754Z,20.90
2023-10-26T06:12:44.189Z,20.60
2023-10-26T06:15:46.824Z,31.17
2023-10-26T06:18:49.246Z,26.73
2023-10-26T06:21:51.929Z,21.98
2023-10-26T06:24:54.332Z,28.02
2023-10-26T06:27:57.001Z,25.50
2023-10-26T06:31:09.598Z,22.13
2023-10-26T06:34:12.508Z,20.95
2023-10-26T06:37:15.047Z,23.90
2023-10-26T06:40:17.772Z,18.30
2023-10-26T06:43:20.245Z,40.20
2023-10-26T06:46:23.320Z,32.17
2023-10-26T06:49:31.016Z,19.23
2023-10-26T06:52:35.886Z,17.33
2023-10-26T06:55:38.294Z,18.27
2023-10-26T06:58:43.425Z,18.40
2023-10-26T07:02:09.009Z,17.50
2023-10-26T07:05:08.987Z,19.27
2023-10-26T07:08:11.407Z,16.67
2023-10-26T07:11:14.222Z,15.02
2023-10-26T07:14:17.098Z,14.70
2023-10-26T07:17:19.737Z,17.53
2023-10-26T07:20:22.168Z,13.85
2023-10-26T07:23:24.820Z,11.80
2023-10-26T07:26:27.385Z,11.65
2023-10-26T07:29:30.372Z,10.50
2023-10-26T07:32:32.844Z,11.23
2023-10-26T07:35:41.526Z,11.77
2023-10-26T07:38:44.008Z,8.60
2023-10-26T07:42:06.410Z,15.43
2023-10-26T07:45:09.588Z,9.90
2023-10-26T07:48:12.696Z,9.20
2023-10-26T07:51:15.231Z,8.73
2023-10-26T07:54:18.918Z,9.68
2023-10-26T07:57:21.687Z,7.97
2023-10-26T08:00:24.341Z,9.23
2023-10-26T08:10:06.696Z,7.62
2023-10-26T08:20:23.861Z,7.93
2023-10-26T08:23:26.009Z,9.05
2023-10-26T08:30:18.355Z,8.57
2023-10-26T08:33:58.543Z,8.17
2023-10-26T08:54:50.728Z,6.12
2023-10-26T08:57:55.132Z,5.45
2023-10-26T09:01:35.476Z,5.35
2023-10-26T09:05:05.317Z,6.03
2023-10-26T09:08:50.914Z,5.90
2023-10-26T09:12:57.997Z,6.70
2023-10-26T09:53:27.976Z,4.22
2023-10-26T09:57:19.378Z,4.03
2023-10-26T10:12:20.081Z,4.82
2023-10-26T10:15:54.162Z,3.70
2023-10-26T10:58:16.106Z,3.17
2023-10-26T11:01:22.421Z,5.18
2023-10-26T11:04:24.891Z,2.70
2023-10-26T11:07:28.765Z,4.68
2023-10-26T11:10:31.888Z,3.60
2023-10-26T11:13:34.556Z,3.10
2023-10-26T11:16:42.449Z,3.42
2023-10-26T11:19:46.225Z,3.60
2023-10-26T11:22:48.758Z,3.40
2023-10-26T11:25:51.533Z,3.63
2023-10-26T11:28:53.994Z,8.52
2023-10-26T11:31:56.664Z,3.05
2023-10-26T11:35:09.774Z,3.25
2023-10-26T11:38:12.404Z,2.35
2023-10-26T11:41:24.763Z,2.93
2023-10-26T11:44:28.677Z,3.28
2023-10-26T11:47:53.913Z,2.70
2023-10-26T11:50:56.761Z,2.15
2023-10-26T11:54:11.761Z,2.87
2023-10-26T11:57:14.508Z,7.83
2023-10-26T12:00:18.266Z,2.37
2023-10-26T12:03:21.032Z,2.97
2023-10-26T12:06:23.603Z,2.45
2023-10-26T12:09:26.304Z,2.62
2023-10-26T12:12:28.939Z,2.27
2023-10-26T12:15:31.786Z,1.83
2023-10-26T12:18:35.543Z,4.05
2023-10-26T12:21:38.288Z,4.15
2023-10-26T12:24:40.705Z,2.70
2023-10-26T12:28:21.024Z,3.93
2023-10-26T12:31:05.910Z,1.60
2023-10-26T12:34:08.712Z,5.20
2023-10-26T12:37:11.822Z,2.75
2023-10-26T12:40:14.708Z,1.80
2023-10-26T12:43:17.149Z,2.67
2023-10-26T12:46:19.837Z,4.07
2023-10-26T12:49:22.456Z,2.67
2023-10-26T12:52:25.156Z,3.25
2023-10-26T12:55:27.522Z,4.25
2023-10-26T12:58:30.199Z,1.67
2023-10-26T13:01:32.670Z,2.12
2023-10-26T13:04:35.355Z,1.70
2023-10-26T13:07:37.836Z,2.37
2023-10-26T13:10:40.618Z,2.12
2023-10-26T13:13:43.141Z,3.87
2023-10-26T13:16:49.373Z,2.85
2023-10-26T13:19:59.633Z,3.70
2023-10-26T13:23:02.350Z,3.42
2023-10-26T13:26:04.700Z,6.43
2023-10-26T13:29:07.514Z,4.43
2023-10-26T13:32:09.956Z,5.78
2023-10-26T13:35:12.955Z,5.70
2023-10-26T13:38:15.437Z,4.03
2023-10-26T13:45:24.804Z,4.37
2023-10-26T13:48:28.563Z,3.42
2023-10-26T13:51:30.983Z,4.47
2023-10-26T13:54:33.743Z,5.15
2023-10-26T13:57:36.143Z,4.53
2023-10-26T14:00:38.935Z,6.03
2023-10-26T14:03:41.965Z,3.28
2023-10-26T14:06:44.435Z,2.95
2023-10-26T14:09:47.919Z,3.03
2023-10-26T14:12:51.183Z,4.20
2023-10-26T14:15:53.829Z,7.47
2023-10-26T14:18:56.295Z,13.05
2023-10-26T14:21:59.070Z,24.63
2023-10-26T14:25:01.484Z,17.37
2023-10-26T14:28:04.371Z,12.48
2023-10-26T14:31:06.982Z,11.33
2023-10-26T14:34:09.750Z,9.25
2023-10-26T14:37:13.131Z,9.45
2023-10-26T14:40:16.131Z,7.28
2023-10-26T14:43:19.704Z,5.53
2023-10-26T14:46:22.523Z,7.13
2023-10-26T14:49:25.467Z,13.13
2023-10-26T14:52:28.235Z,17.55
2023-10-26T14:55:32.778Z,13.93
2023-10-26T14:58:35.512Z,21.60
2023-10-26T15:01:38.014Z,24.93
2023-10-26T15:04:40.768Z,20.95
2023-10-26T15:07:43.200Z,13.65
2023-10-26T15:10:47.043Z,8.45
2023-10-26T15:13:50.092Z,8.05
2023-10-26T15:16:52.834Z,9.63
2023-10-26T15:19:55.269Z,11.93
2023-10-26T15:22:57.961Z,10.80
2023-10-26T15:26:04.869Z,11.05
2023-10-26T15:29:07.505Z,12.73
2023-10-26T15:32:10.071Z,11.70
2023-10-26T15:35:12.759Z,12.73
2023-10-26T15:38:15.152Z,10.93
2023-10-26T15:41:17.791Z,11.68
2023-10-26T15:44:21.651Z,11.18
2023-10-26T15:47:25.496Z,12.03
2023-10-26T15:50:29.722Z,30.95
2023-10-26T15:53:32.590Z,43.95
2023-10-26T15:56:35.143Z,50.22
2023-10-26T15:59:38.108Z,50.92
2023-10-26T16:02:46.052Z,55.30
2023-10-26T16:05:48.872Z,55.75
2023-10-26T16:08:51.240Z,55.88
2023-10-26T16:11:53.923Z,53.72
2023-10-26T16:14:56.277Z,28.02
2023-10-26T16:17:58.963Z,19.30
2023-10-26T16:21:02.563Z,22.25
2023-10-26T16:24:05.586Z,30.25
2023-10-26T16:27:07.922Z,39.30
2023-10-26T16:30:10.856Z,86.75
2023-10-26T16:33:14.478Z,60.60
2023-10-26T16:36:17.129Z,32.50
2023-10-26T16:39:20.166Z,29.35
2023-10-26T16:42:23.506Z,26.15
2023-10-26T16:45:25.933Z,21.95
2023-10-26T16:48:28.667Z,14.70
2023-10-26T16:51:31.051Z,15.00
2023-10-26T16:54:33.703Z,13.73
2023-10-26T16:57:36.252Z,11.82
2023-10-26T17:00:39.141Z,12.32
2023-10-26T17:03:41.662Z,13.83
2023-10-26T17:06:44.471Z,11.57
2023-10-26T17:09:47.164Z,11.20
2023-10-26T17:12:49.939Z,9.50
2023-10-26T17:15:55.360Z,11.68
2023-10-26T17:18:58.132Z,11.87
2023-10-26T17:22:00.526Z,11.75
2023-10-26T17:25:03.673Z,12.98
2023-10-26T17:28:06.143Z,11.48
2023-10-26T17:31:09.172Z,11.25
2023-10-26T17:34:11.881Z,12.10
2023-10-26T17:37:14.567Z,11.50
2023-10-26T17:40:16.999Z,9.18
2023-10-26T17:43:19.672Z,13.05
2023-10-26T17:46:22.529Z,15.30
2023-10-26T17:49:25.289Z,15.63
2023-10-26T17:52:27.624Z,16.62
2023-10-26T17:55:30.509Z,17.67
2023-10-26T17:58:32.897Z,19.65
2023-10-26T18:01:37.764Z,18.98
2023-10-26T18:04:41.247Z,19.70
2023-10-26T18:07:43.620Z,22.55
2023-10-26T18:10:46.272Z,23.50
2023-10-26T18:13:48.697Z,23.17
2023-10-26T18:16:55.452Z,22.95
2023-10-26T18:19:58.801Z,21.90
2023-10-26T18:23:03.050Z,21.73
2023-10-26T18:26:05.470Z,21.92
2023-10-26T18:29:08.429Z,24.77
2023-10-26T18:32:14.023Z,24.23
2023-10-26T18:35:17.048Z,23.63
2023-10-26T18:38:19.736Z,19.75
2023-10-26T18:41:26.908Z,19.75
2023-10-26T18:44:29.649Z,18.48
2023-10-26T18:47:32.414Z,21.85
2023-10-26T18:50:34.998Z,21.43
2023-10-26T18:53:40.042Z,17.83
2023-10-26T18:56:42.742Z,18.20
2023-10-26T18:59:45.815Z,17.55
2023-10-26T19:02:48.444Z,18.10
2023-10-26T19:05:52.077Z,20.80
2023-10-26T19:08:54.473Z,22.52
2023-10-26T19:11:57.424Z,19.75
2023-10-26T19:14:59.817Z,20.77
2023-10-26T19:18:03.934Z,17.83
2023-10-26T19:21:09.040Z,20.13
2023-10-26T19:24:11.985Z,20.85
2023-10-26T19:27:14.425Z,16.15
2023-10-26T19:30:19.523Z,14.95
2023-10-26T19:33:23.510Z,13.60
2023-10-26T19:36:26.778Z,14.37
2023-10-26T19:39:30.549Z,14.43
2023-10-26T19:42:38.941Z,16.55
2023-10-26T19:45:43.404Z,27.52
2023-10-26T19:48:46.584Z,17.08
2023-10-26T19:51:49.518Z,40.30
2023-10-26T19:54:52.566Z,28.27
2023-10-26T19:57:55.326Z,34.22
2023-10-26T20:00:58.321Z,25.92
2023-10-26T20:04:01.548Z,32.63
2023-10-26T20:07:04.767Z,21.37
2023-10-26T20:10:09.311Z,25.98
2023-10-26T20:13:12.250Z,22.05
2023-10-26T20:16:15.619Z,22.37
2023-10-26T20:19:18.307Z,16.40
2023-10-26T20:22:21.098Z,23.27
2023-10-26T20:25:23.772Z,21.37
2023-10-26T20:28:26.418Z,16.67
2023-10-26T20:31:29.454Z,12.65
2023-10-26T20:34:32.506Z,15.05
2023-10-26T20:37:35.481Z,14.03
2023-10-26T20:40:40.918Z,16.45
2023-10-26T20:43:44.465Z,12.68
2023-10-26T20:46:47.245Z,12.98
2023-10-26T20:49:53.116Z,12.65
2023-10-26T20:52:55.799Z,13.27
2023-10-26T20:55:59.177Z,12.52
2023-10-26T20:59:01.820Z,12.82
2023-10-26T21:02:04.742Z,15.18
2023-10-26T21:05:07.775Z,12.05
2023-10-26T21:08:13.520Z,11.30
2023-10-26T21:11:17.644Z,18.20
2023-10-26T21:14:20.089Z,27.52
2023-10-26T21:17:26.057Z,24.42
2023-10-26T21:20:28.473Z,24.75
2023-10-26T21:23:31.292Z,22.83
2023-10-26T21:26:33.686Z,16.33
2023-10-26T21:29:36.367Z,15.20
2023-10-26T21:32:39.782Z,14.00
2023-10-26T21:35:42.494Z,15.30
2023-10-26T21:38:44.930Z,15.00
2023-10-26T21:41:47.583Z,13.65
2023-10-26T21:44:50.007Z,13.73
2023-10-26T21:47:52.669Z,15.10
2023-10-26T21:50:55.028Z,12.20
2023-10-26T21:53:58.192Z,14.57
2023-10-26T21:57:00.564Z,14.23
2023-10-26T22:00:06.655Z,14.43
2023-10-26T22:03:14.951Z,17.48
2023-10-26T22:06:17.614Z,16.45
2023-10-26T22:09:22.168Z,17.70
2023-10-26T22:12:24.996Z,18.60
2023-10-26T22:15:27.420Z,20.90
2023-10-26T22:18:30.210Z,18.17
2023-10-26T22:21:32.548Z,17.73
2023-10-26T22:24:35.336Z,16.23
2023-10-26T22:27:37.723Z,19.25
2023-10-26T22:30:40.397Z,20.95
2023-10-26T22:33:42.742Z,22.60
2023-10-26T22:36:45.412Z,22.13
2023-10-26T22:39:48.399Z,23.17
2023-10-26T22:42:51.130Z,22.15
2023-10-26T22:45:53.799Z,22.87
2023-10-26T22:48:56.497Z,20.70
2023-10-26T22:51:58.836Z,22.50
2023-10-26T22:55:01.695Z,20.33
2023-10-26T22:58:04.201Z,25.05
2023-10-26T23:01:07.137Z,23.62
2023-10-26T23:04:10.145Z,21.25
2023-10-26T23:07:12.955Z,23.48
2023-10-26T23:10:15.452Z,19.20
2023-10-26T23:13:18.202Z,19.58
2023-10-26T23:16:21.271Z,20.90
2023-10-26T23:19:24.068Z,21.67
2023-10-26T23:22:26.503Z,24.63
2023-10-26T23:25:29.228Z,21.17
2023-10-26T23:28:31.706Z,20.00
2023-10-26T23:31:34.378Z,21.60
2023-10-26T23:34:38.674Z,22.75
2023-10-26T23:37:41.654Z,21.20
2023-10-26T23:40:44.518Z,23.97
2023-10-26T23:43:48.745Z,22.80
2023-10-26T23:46:51.210Z,24.00
2023-10-26T23:49:54.275Z,23.87
2023-10-26T23:52:56.659Z,20.27
2023-10-26T23:55:59.443Z,25.13
2023-10-26T23:59:03.616Z,19.75
